Time;durP1;ratioP1;P1;durP2;ratioP2;P2;SDS_P1;SDS_P2;PMS_P1;PMS_P2;Temp;Humidity;BMP_temperature;BMP_pressure;BME280_temperature;BME280_humidity;BME280_pressure;Samples;Min_cycle;Max_cycle;Signal;HPM_P1;HPM_P2
2021/01/22 00:02:43;;;;;;;3.97;2.60;;;;;;;8.80;56.91;96049.22;8294958;28;20212;-69
2021/01/22 00:06:45;;;;;;;10.17;1.40;;;;;;;8.94;57.13;96037.13;8296500;28;20291;-70
2021/01/22 00:10:47;;;;;;;2.13;1.07;;;;;;;9.03;60.05;95997.78;8296236;28;20312;-70
2021/01/22 00:14:49;;;;;;;1.83;1.63;;;;;;;8.96;61.68;95970.72;8296529;28;20204;-70
2021/01/22 00:18:52;;;;;;;1.90;1.60;;;;;;;8.87;60.29;95959.28;8295577;28;20229;-69
2021/01/22 00:22:53;;;;;;;2.20;1.70;;;;;;;8.87;60.12;95971.34;8296435;28;20202;-70
2021/01/22 00:26:55;;;;;;;2.47;2.00;;;;;;;8.74;59.20;95961.91;8295378;28;20205;-69
2021/01/22 00:30:57;;;;;;;6.57;2.90;;;;;;;8.43;58.43;95949.44;8298793;28;20511;-69
2021/01/22 00:35:00;;;;;;;3.70;3.10;;;;;;;8.34;58.56;95956.00;8302776;28;20205;-69
2021/01/22 00:39:01;;;;;;;4.47;3.30;;;;;;;8.22;58.44;95955.06;8301374;28;20232;-69
2021/01/22 00:43:04;;;;;;;3.90;3.20;;;;;;;8.15;58.15;95944.34;8302327;28;20617;-70
2021/01/22 00:47:05;;;;;;;4.43;3.40;;;;;;;8.23;57.95;95942.06;8301829;28;20236;-69
2021/01/22 00:51:08;;;;;;;3.83;3.30;;;;;;;8.06;58.18;95933.84;8300581;28;20209;-70
2021/01/22 00:55:10;;;;;;;5.87;3.30;;;;;;;7.77;58.93;95929.66;8301875;28;20220;-71
2021/01/22 00:59:12;;;;;;;5.47;3.93;;;;;;;7.91;58.50;95935.66;8301941;28;20347;-70
2021/01/22 01:03:14;;;;;;;4.03;3.27;;;;;;;7.92;58.17;95921.84;8299383;28;20208;-70
2021/01/22 01:07:17;;;;;;;4.57;3.50;;;;;;;8.07;57.88;95930.31;8300467;28;20205;-70
2021/01/22 01:11:18;;;;;;;4.33;3.00;;;;;;;8.23;57.57;95931.75;8300914;28;20561;-70
2021/01/22 01:15:20;;;;;;;4.30;3.30;;;;;;;8.02;57.82;95928.06;8301410;28;20353;-70
2021/01/22 01:19:22;;;;;;;4.53;3.37;;;;;;;8.07;57.79;95925.16;8300422;28;20552;-70
2021/01/22 01:23:24;;;;;;;3.43;3.00;;;;;;;8.20;57.64;95925.97;8300223;28;20239;-70
2021/01/22 01:27:26;;;;;;;4.23;3.13;;;;;;;7.91;58.27;95897.81;8299909;28;20267;-71
2021/01/22 01:31:28;;;;;;;4.80;2.90;;;;;;;8.03;58.20;95894.44;8299842;28;20225;-69
2021/01/22 01:35:30;;;;;;;3.20;2.90;;;;;;;7.87;58.52;95904.13;8299484;28;20226;-70
2021/01/22 01:39:32;;;;;;;3.67;3.00;;;;;;;7.94;57.89;95887.31;8301051;28;20279;-69
2021/01/22 01:43:34;;;;;;;5.20;2.90;;;;;;;7.91;57.74;95873.81;8298607;28;20212;-70
2021/01/22 01:47:36;;;;;;;3.20;2.60;;;;;;;7.89;57.81;95871.34;8298949;28;20266;-70
2021/01/22 01:51:39;;;;;;;4.73;2.70;;;;;;;8.03;57.23;95867.81;8300540;28;20216;-70
2021/01/22 01:55:41;;;;;;;4.03;2.97;;;;;;;8.20;57.43;95872.66;8297694;28;20209;-72
2021/01/22 01:59:43;;;;;;;4.47;2.73;;;;;;;8.26;56.79;95879.16;8299971;28;20262;-71
2021/01/22 02:03:45;;;;;;;5.67;3.30;;;;;;;8.38;56.84;95882.66;8317635;28;20712;-71
2021/01/22 02:07:47;;;;;;;3.53;2.50;;;;;;;8.22;56.90;95881.13;8331212;28;20291;-71
2021/01/22 02:11:49;;;;;;;2.93;2.53;;;;;;;8.49;56.50;95880.19;8331263;28;20281;-71
2021/01/22 02:15:52;;;;;;;4.00;2.70;;;;;;;8.20;56.88;95849.44;8332485;28;20200;-71
2021/01/22 02:20:04;;;;;;;6.70;2.53;;;;;;;8.25;57.09;95845.75;8330163;28;20287;-71
2021/01/22 02:24:09;;;;;;;2.73;2.37;;;;;;;8.21;57.14;95832.25;8330285;28;20235;-71
2021/01/22 02:28:14;;;;;;;3.77;2.30;;;;;;;8.48;56.53;95832.09;8330472;28;20710;-71
2021/01/22 02:32:18;;;;;;;4.83;2.33;;;;;;;8.58;56.52;95819.38;8330278;28;20217;-71
2021/01/22 02:36:20;;;;;;;4.20;1.90;;;;;;;8.59;56.34;95819.28;8329823;28;20250;-71
2021/01/22 02:40:22;;;;;;;2.33;1.60;;;;;;;8.64;56.12;95813.78;8329992;28;20228;-71
2021/01/22 02:44:25;;;;;;;2.60;1.77;;;;;;;8.70;55.96;95804.78;8330404;28;20569;-71
2021/01/22 02:48:27;;;;;;;2.27;1.13;;;;;;;8.75;56.07;95816.44;8329580;28;20204;-71
2021/01/22 02:52:28;;;;;;;1.20;1.10;;;;;;;8.87;55.80;95807.00;8328920;28;20726;-71
2021/01/22 02:56:38;;;;;;;1.23;1.13;;;;;;;8.87;55.72;95816.47;8329093;28;20231;-72
2021/01/22 03:00:44;;;;;;;1.97;1.00;;;;;;;9.03;55.49;95823.97;8330452;28;20303;-71
2021/01/22 03:04:46;;;;;;;2.50;0.90;;;;;;;9.10;55.57;95814.81;8302630;28;20540;-71
2021/01/22 03:08:48;;;;;;;0.67;0.67;;;;;;;9.14;55.67;95818.84;8296656;28;20215;-71
2021/01/22 03:12:51;;;;;;;0.90;0.80;;;;;;;9.21;55.43;95820.03;8296454;28;20229;-72
2021/01/22 03:16:54;;;;;;;1.60;0.90;;;;;;;9.24;55.47;95822.41;8296816;28;20205;-71
2021/01/22 03:20:56;;;;;;;0.83;0.83;;;;;;;9.28;55.40;95820.41;8295993;28;20311;-71
2021/01/22 03:24:57;;;;;;;1.27;0.97;;;;;;;9.33;55.56;95826.09;8295975;28;20645;-71
2021/01/22 03:28:59;;;;;;;0.90;0.80;;;;;;;9.42;55.32;95820.22;8296346;28;20578;-71
2021/01/22 03:33:02;;;;;;;1.53;1.00;;;;;;;9.21;55.79;95812.28;8295730;28;20232;-71
2021/01/22 03:37:04;;;;;;;2.03;0.97;;;;;;;9.26;55.89;95823.09;8295892;28;20220;-71
2021/01/22 03:41:06;;;;;;;1.17;0.90;;;;;;;9.35;56.01;95821.63;8296106;28;20197;-71
2021/01/22 03:45:09;;;;;;;1.00;0.90;;;;;;;9.38;55.73;95808.47;8296142;28;20197;-71
2021/01/22 03:49:11;;;;;;;1.40;1.00;;;;;;;9.49;55.75;95807.69;8295482;28;20209;-72
2021/01/22 03:53:13;;;;;;;1.77;0.90;;;;;;;9.41;55.69;95810.84;8295780;28;20204;-71
2021/01/22 03:57:27;;;;;;;1.07;0.90;;;;;;;9.43;55.94;95798.63;8295002;28;20295;-72
2021/01/22 04:01:30;;;;;;;1.27;0.90;;;;;;;9.46;56.00;95798.41;8295534;28;20205;-72
2021/01/22 04:05:33;;;;;;;1.83;1.30;;;;;;;9.54;55.74;95790.91;8298290;28;20197;-72
2021/01/22 04:09:34;;;;;;;1.47;0.93;;;;;;;9.49;55.87;95779.25;8301409;28;20528;-71
2021/01/22 04:13:36;;;;;;;2.00;0.93;;;;;;;9.52;56.05;95789.34;8302283;28;20208;-71
2021/01/22 04:17:39;;;;;;;2.37;1.20;;;;;;;9.41;56.56;95787.59;8301794;28;20255;-71
2021/01/22 04:21:42;;;;;;;0.90;0.80;;;;;;;9.44;56.33;95794.28;8302361;28;20209;-72
2021/01/22 04:25:44;;;;;;;1.63;1.00;;;;;;;9.46;56.14;95790.66;8301589;28;20197;-72
2021/01/22 04:29:45;;;;;;;1.50;1.00;;;;;;;9.47;56.50;95789.69;8301641;28;20661;-71
2021/01/22 04:33:47;;;;;;;1.10;1.00;;;;;;;9.45;56.63;95777.84;8301249;28;20221;-72
2021/01/22 04:37:50;;;;;;;1.87;0.87;;;;;;;9.24;56.91;95773.31;8301767;28;20229;-71
2021/01/22 04:41:51;;;;;;;1.43;1.00;;;;;;;9.39;56.82;95768.78;8300853;28;20202;-71
2021/01/22 04:45:54;;;;;;;2.07;0.90;;;;;;;9.41;56.71;95771.28;8301300;28;20197;-71
2021/01/22 04:49:56;;;;;;;3.10;1.23;;;;;;;9.33;56.73;95774.41;8301107;28;20691;-71
2021/01/22 04:54:03;;;;;;;1.63;0.80;;;;;;;9.37;56.70;95770.66;8301180;28;20237;-72
2021/01/22 04:58:07;;;;;;;1.80;1.10;;;;;;;9.29;56.94;95767.81;8300909;28;20229;-71
2021/01/22 05:02:10;;;;;;;0.83;0.80;;;;;;;9.28;56.94;95766.19;8300648;28;20621;-71
2021/01/22 05:06:12;;;;;;;1.60;1.00;;;;;;;9.30;56.83;95767.69;8300563;28;20304;-72
2021/01/22 05:10:14;;;;;;;2.83;1.13;;;;;;;9.11;57.19;95760.50;8300380;28;20229;-71
2021/01/22 05:14:16;;;;;;;1.73;1.00;;;;;;;8.94;57.50;95753.97;8300102;28;20205;-71
2021/01/22 05:18:17;;;;;;;1.80;1.00;;;;;;;9.05;56.99;95742.06;8299336;28;20221;-71
2021/01/22 05:22:19;;;;;;;2.70;1.03;;;;;;;9.17;56.75;95741.94;8300760;28;20255;-71
2021/01/22 05:26:22;;;;;;;1.77;1.10;;;;;;;9.14;56.96;95746.56;8300630;28;20205;-71
2021/01/22 05:30:25;;;;;;;2.10;1.20;;;;;;;9.12;57.03;95746.66;8300081;28;20287;-72
2021/01/22 05:34:51;;;;;;;2.90;1.33;;;;;;;9.14;56.53;95754.31;8299774;28;20209;-71
2021/01/22 05:38:53;;;;;;;2.63;1.40;;;;;;;9.09;56.74;95754.63;8289137;28;20245;-71
2021/01/22 05:42:57;;;;;;;2.80;1.50;;;;;;;9.09;56.78;95743.47;8299477;28;20201;-71
2021/01/22 05:47:07;;;;;;;4.07;1.60;;;;;;;8.92;57.20;95745.53;8299467;28;20208;-71
2021/01/22 05:51:09;;;;;;;4.23;1.50;;;;;;;9.03;56.91;95749.91;8299578;28;20205;-71
2021/01/22 05:55:23;;;;;;;5.10;1.80;;;;;;;9.11;56.70;95750.16;8299356;28;20220;-71
2021/01/22 05:59:26;;;;;;;2.77;1.53;;;;;;;9.07;56.98;95745.34;8299242;28;20229;-72
2021/01/22 06:03:28;;;;;;;5.13;2.20;;;;;;;9.05;56.85;95747.22;8299043;28;20200;-71
2021/01/22 06:07:30;;;;;;;3.50;1.50;;;;;;;9.09;56.96;95748.63;8298439;28;20240;-71
2021/01/22 06:11:32;;;;;;;2.20;1.30;;;;;;;9.02;56.61;95750.03;8298710;28;20225;-72
2021/01/22 06:15:36;;;;;;;7.30;2.27;;;;;;;8.79;57.50;95750.75;8298822;28;20590;-71
2021/01/22 06:19:41;;;;;;;3.27;1.73;;;;;;;8.89;57.07;95744.91;8298265;28;20277;-71
2021/01/22 06:23:43;;;;;;;4.83;2.63;;;;;;;9.10;56.72;95745.94;8298224;28;20514;-71
2021/01/22 06:27:46;;;;;;;4.10;2.20;;;;;;;8.96;56.98;95754.69;8297602;28;20201;-71
2021/01/22 06:31:49;;;;;;;3.50;2.10;;;;;;;8.99;56.78;95749.31;8297432;28;20225;-71
2021/01/22 06:36:10;;;;;;;3.67;2.03;;;;;;;8.92;56.58;95753.25;8296906;28;20292;-71
2021/01/22 06:40:13;;;;;;;4.63;2.23;;;;;;;8.86;56.70;95755.50;8297082;28;20216;-71
2021/01/22 06:44:15;;;;;;;4.17;1.67;;;;;;;8.73;57.29;95753.78;8296838;28;20593;-71
2021/01/22 06:48:18;;;;;;;4.30;1.90;;;;;;;8.69;57.12;95761.88;8297088;28;20211;-71
2021/01/22 06:52:20;;;;;;;4.40;1.50;;;;;;;8.85;56.78;95767.53;8297380;28;20197;-71
2021/01/22 06:56:21;;;;;;;3.53;1.87;;;;;;;8.87;56.68;95765.72;8297090;28;20201;-71
2021/01/22 07:00:36;;;;;;;5.10;1.93;;;;;;;8.88;56.24;95753.63;8297510;28;20622;-71
2021/01/22 07:04:41;;;;;;;5.00;1.53;;;;;;;8.75;56.62;95754.50;8297067;28;20212;-71
2021/01/22 07:08:52;;;;;;;4.83;2.10;;;;;;;8.81;56.68;95745.47;8277437;28;20209;-70
2021/01/22 07:12:54;;;;;;;3.67;1.67;;;;;;;8.78;56.47;95737.97;8292446;28;20225;-71
2021/01/22 07:16:57;;;;;;;5.60;1.60;;;;;;;8.75;56.42;95741.59;8295291;28;20216;-71
2021/01/22 07:21:21;;;;;;;4.17;2.60;;;;;;;8.95;56.27;95747.06;8296612;28;20320;-71
2021/01/22 07:25:35;;;;;;;4.87;1.77;;;;;;;9.11;55.77;95747.56;8296696;28;20200;-72
2021/01/22 07:29:36;;;;;;;4.83;1.90;;;;;;;8.88;56.28;95751.84;8296704;28;20513;-71
2021/01/22 07:33:38;;;;;;;2.63;1.50;;;;;;;9.03;56.04;95759.44;8286285;28;20229;-72
2021/01/22 07:37:42;;;;;;;3.60;1.30;;;;;;;8.96;56.53;95759.84;8296548;28;20200;-72
2021/01/22 07:41:44;;;;;;;4.70;1.87;;;;;;;9.02;56.35;95757.75;8327743;28;20203;-72
2021/01/22 07:45:46;;;;;;;2.67;1.10;;;;;;;9.16;55.85;95747.25;8335793;28;20538;-72
2021/01/22 07:49:57;;;;;;;3.00;1.50;;;;;;;9.25;55.96;95748.31;8336276;28;20200;-71
2021/01/22 07:54:01;;;;;;;5.90;1.67;;;;;;;9.06;56.03;95751.44;8335284;28;20200;-72
2021/01/22 07:58:04;;;;;;;2.67;1.20;;;;;;;9.15;56.13;95761.09;8334972;28;20663;-71
2021/01/22 08:02:17;;;;;;;3.10;1.20;;;;;;;9.46;55.64;95764.81;8311932;28;20593;-72
2021/01/22 08:06:19;;;;;;;2.73;1.10;;;;;;;9.58;55.03;95760.47;8302739;28;20272;-71
2021/01/22 08:10:26;;;;;;;3.37;1.40;;;;;;;9.64;55.30;95762.59;8307209;28;20224;-71
2021/01/22 08:14:32;;;;;;;3.90;2.13;;;;;;;9.52;55.23;95756.59;8333679;28;20200;-72
2021/01/22 08:18:34;;;;;;;3.70;2.70;;;;;;;11.16;51.20;95760.22;8334636;28;20219;-71
2021/01/22 08:22:37;;;;;;;5.60;2.17;;;;;;;11.36;49.26;95753.38;8324531;28;20248;-71
2021/01/22 08:26:40;;;;;;;3.23;1.70;;;;;;;11.60;49.02;95754.91;8301444;28;20617;-71
2021/01/22 08:30:42;;;;;;;2.33;1.40;;;;;;;12.26;47.58;95760.53;8302596;28;20605;-71
2021/01/22 08:34:44;;;;;;;1.90;1.17;;;;;;;12.34;47.57;95765.06;8300972;28;20204;-71
2021/01/22 08:38:45;;;;;;;4.13;1.47;;;;;;;11.38;49.60;95769.63;8300854;28;20229;-72
2021/01/22 08:42:58;;;;;;;2.40;1.23;;;;;;;11.02;51.15;95776.88;8301584;28;20204;-71
2021/01/22 08:47:00;;;;;;;3.10;1.20;;;;;;;11.58;49.54;95768.00;8300763;28;20201;-72
2021/01/22 08:51:03;;;;;;;2.37;1.00;;;;;;;11.23;49.82;95761.38;8301915;28;20621;-71
2021/01/22 08:55:18;;;;;;;9.67;1.50;;;;;;;12.25;65.00;95769.25;8301316;28;20205;-70
2021/01/22 08:59:20;;;;;;;3.53;1.10;;;;;;;11.96;50.16;95758.78;8300782;28;20209;-68
2021/01/22 09:03:23;;;;;;;5.03;1.10;;;;;;;12.80;48.70;95747.25;8301814;28;20255;-69
2021/01/22 09:07:25;;;;;;;4.10;0.93;;;;;;;12.61;46.92;95746.25;8298871;28;20262;-69
2021/01/22 09:11:36;;;;;;;2.50;1.67;;;;;;;12.74;46.44;95745.16;8300230;28;20287;-66
2021/01/22 09:15:39;;;;;;;3.03;1.13;;;;;;;12.30;47.29;95746.34;8301510;28;20296;-66
2021/01/22 09:19:51;;;;;;;2.60;1.00;;;;;;;12.50;46.96;95736.00;8300124;28;20236;-67
2021/01/22 09:23:53;;;;;;;2.13;0.90;;;;;;;12.70;46.41;95736.84;8301064;28;20515;-67
2021/01/22 09:27:55;;;;;;;3.40;1.10;;;;;;;12.68;47.00;95749.97;8300212;28;20205;-66
2021/01/22 09:31:57;;;;;;;2.97;1.27;;;;;;;12.86;46.72;95744.91;8299879;28;20306;-66
2021/01/22 09:35:59;;;;;;;2.03;1.03;;;;;;;13.18;45.98;95748.19;8301341;28;20205;-66
2021/01/22 09:40:01;;;;;;;3.00;1.27;;;;;;;13.20;45.61;95749.69;8300437;28;20235;-66
2021/01/22 09:44:03;;;;;;;4.57;1.27;;;;;;;12.88;45.81;95742.16;8300329;28;20212;-66
2021/01/22 09:48:06;;;;;;;2.17;1.00;;;;;;;12.62;46.76;95749.66;8300438;28;20212;-67
2021/01/22 09:52:08;;;;;;;2.37;1.10;;;;;;;13.29;46.05;95751.47;8299374;28;20202;-67
2021/01/22 09:56:10;;;;;;;3.63;1.40;;;;;;;13.25;45.22;95752.69;8299034;28;20205;-67
2021/01/22 10:00:14;;;;;;;5.43;1.30;;;;;;;13.36;45.26;95746.53;8299123;28;20299;-66
2021/01/22 10:04:17;;;;;;;3.10;1.30;;;;;;;13.30;45.40;95729.72;8299277;28;20236;-66
2021/01/22 10:08:20;;;;;;;2.03;1.20;;;;;;;13.52;44.76;95727.78;8299302;28;20244;-66
2021/01/22 10:12:22;;;;;;;5.10;1.40;;;;;;;13.04;46.37;95729.47;8299102;28;20549;-66
2021/01/22 10:16:24;;;;;;;3.10;1.40;;;;;;;12.58;47.48;95719.72;8299416;28;20285;-67
2021/01/22 10:20:27;;;;;;;4.57;1.47;;;;;;;13.08;46.23;95725.63;8298403;28;20276;-66
2021/01/22 10:24:29;;;;;;;2.27;1.20;;;;;;;13.41;45.54;95720.94;8298254;28;20537;-66
2021/01/22 10:28:30;;;;;;;2.37;1.20;;;;;;;13.36;45.71;95717.13;8297891;28;20209;-66
2021/01/22 10:32:32;;;;;;;3.03;1.27;;;;;;;13.37;45.64;95717.00;8298328;28;20233;-66
2021/01/22 10:36:35;;;;;;;2.83;1.20;;;;;;;13.15;46.30;95718.09;8298426;28;20263;-66
2021/01/22 10:40:37;;;;;;;3.83;1.30;;;;;;;13.41;45.94;95723.56;8298847;28;20303;-66
2021/01/22 10:44:39;;;;;;;2.97;1.20;;;;;;;13.44;45.68;95725.03;8298910;28;20204;-67
2021/01/22 10:48:41;;;;;;;2.67;1.57;;;;;;;13.62;45.73;95717.34;8298695;28;20205;-66
2021/01/22 10:52:43;;;;;;;4.53;1.60;;;;;;;13.60;45.59;95717.47;8299548;28;20205;-69
2021/01/22 10:56:45;;;;;;;4.13;1.30;;;;;;;13.44;45.77;95712.88;8297636;28;20205;-68
2021/01/22 11:00:47;;;;;;;5.67;1.70;;;;;;;13.54;45.81;95707.66;8297365;28;20287;-68
2021/01/22 11:04:49;;;;;;;5.70;1.60;;;;;;;13.55;45.78;95705.88;8298407;28;20204;-68
2021/01/22 11:08:51;;;;;;;3.37;1.50;;;;;;;13.63;45.93;95695.56;8297330;28;20209;-68
2021/01/22 11:12:53;;;;;;;3.00;1.80;;;;;;;13.40;45.95;95703.72;8296319;28;20237;-67
2021/01/22 11:16:55;;;;;;;2.27;1.33;;;;;;;13.65;45.58;95702.28;8295956;28;20644;-67
2021/01/22 11:20:57;;;;;;;4.17;1.70;;;;;;;13.72;45.62;95702.50;8296638;28;20303;-69
2021/01/22 11:25:00;;;;;;;4.67;1.67;;;;;;;13.91;45.44;95695.59;8297294;28;20209;-69
2021/01/22 11:29:02;;;;;;;5.10;1.80;;;;;;;13.53;46.15;95702.59;8298231;28;20212;-68
2021/01/22 11:33:05;;;;;;;1.93;1.13;;;;;;;13.52;46.54;95691.38;8296426;28;20700;-69
2021/01/22 11:37:07;;;;;;;6.37;1.60;;;;;;;13.61;46.24;95685.31;8297613;28;20292;-69
2021/01/22 11:41:09;;;;;;;3.20;1.40;;;;;;;13.53;46.24;95673.97;8297770;28;20231;-69
2021/01/22 11:45:12;;;;;;;5.70;1.90;;;;;;;13.43;45.64;95677.44;8297725;28;20201;-70
2021/01/22 11:49:14;;;;;;;3.63;1.80;;;;;;;13.36;45.83;95678.94;8296353;28;20205;-70
2021/01/22 11:53:16;;;;;;;3.97;1.40;;;;;;;13.28;45.48;95678.81;8296542;28;20197;-69
2021/01/22 11:57:19;;;;;;;3.83;1.50;;;;;;;13.60;45.95;95670.66;8296475;28;20205;-68
2021/01/22 12:01:20;;;;;;;3.63;1.30;;;;;;;13.62;45.12;95671.34;8295654;28;20232;-69
2021/01/22 12:05:23;;;;;;;3.17;1.30;;;;;;;13.56;45.63;95671.13;8297278;28;20594;-70
2021/01/22 12:09:25;;;;;;;5.57;1.47;;;;;;;13.21;44.85;95651.75;8296096;28;20201;-70
2021/01/22 12:13:27;;;;;;;3.27;1.40;;;;;;;13.27;45.58;95646.00;8296066;28;20265;-70
2021/01/22 12:17:29;;;;;;;4.80;1.73;;;;;;;13.36;45.20;95652.94;8296682;28;20276;-69
2021/01/22 12:21:32;;;;;;;5.37;1.67;;;;;;;13.29;45.31;95642.28;8295796;28;20229;-69
2021/01/22 12:25:33;;;;;;;4.90;1.57;;;;;;;13.36;45.25;95642.56;8296718;28;20201;-69
2021/01/22 12:29:37;;;;;;;4.17;1.43;;;;;;;13.34;45.22;95641.06;8303361;28;20288;-69
2021/01/22 12:33:40;;;;;;;4.47;1.40;;;;;;;13.41;44.95;95635.16;8302120;28;20221;-69
2021/01/22 12:37:42;;;;;;;3.83;1.60;;;;;;;13.45;45.22;95630.50;8301860;28;20205;-69
2021/01/22 12:41:43;;;;;;;5.53;1.80;;;;;;;13.27;45.26;95641.63;8302625;28;20225;-68
2021/01/22 12:45:46;;;;;;;4.60;1.40;;;;;;;13.39;44.87;95631.06;8301761;28;20209;-69
2021/01/22 12:49:48;;;;;;;3.90;1.57;;;;;;;13.33;45.45;95627.25;8301324;28;20201;-69
2021/01/22 12:53:49;;;;;;;4.97;1.43;;;;;;;13.48;45.26;95622.41;8301957;28;20201;-70
2021/01/22 12:57:51;;;;;;;3.10;1.37;;;;;;;13.57;44.97;95618.94;8302240;28;20317;-70
2021/01/22 13:01:54;;;;;;;2.83;1.40;;;;;;;13.43;45.40;95622.03;8300843;28;20319;-70
2021/01/22 13:05:56;;;;;;;2.50;1.40;;;;;;;13.54;45.66;95629.66;8301032;28;20212;-70
2021/01/22 13:09:58;;;;;;;2.43;1.17;;;;;;;13.43;45.97;95640.22;8300658;28;20229;-71
2021/01/22 13:13:59;;;;;;;3.20;1.50;;;;;;;13.57;46.21;95631.94;8301888;28;20544;-70
2021/01/22 13:18:04;;;;;;;5.30;1.73;;;;;;;13.66;46.31;95625.06;8301439;28;20240;-71
2021/01/22 13:22:13;;;;;;;4.60;1.60;;;;;;;13.63;46.25;95628.78;8302140;28;20217;-70
2021/01/22 13:26:16;;;;;;;3.57;2.03;;;;;;;13.57;46.29;95618.13;8300649;28;20285;-71
2021/01/22 13:30:18;;;;;;;3.63;1.30;;;;;;;13.58;46.38;95619.78;8301058;28;20213;-70
2021/01/22 13:34:21;;;;;;;4.17;1.80;;;;;;;13.56;46.61;95621.72;8299981;28;20272;-70
2021/01/22 13:38:23;;;;;;;4.43;1.37;;;;;;;13.58;46.92;95624.97;8300082;28;20544;-69
2021/01/22 13:42:25;;;;;;;4.07;1.80;;;;;;;13.41;46.42;95635.16;8301010;28;20209;-70
2021/01/22 13:46:27;;;;;;;4.73;2.00;;;;;;;13.58;46.50;95623.19;8294462;28;20545;-71
2021/01/22 13:50:29;;;;;;;6.13;3.60;;;;;;;13.53;46.17;95632.38;8300562;28;20637;-71
2021/01/22 13:54:31;;;;;;;4.90;1.70;;;;;;;13.52;46.62;95628.97;8300095;28;20613;-71
2021/01/22 13:58:33;;;;;;;3.43;1.33;;;;;;;13.56;45.96;95619.09;8301013;28;20538;-71
2021/01/22 14:02:34;;;;;;;2.50;1.33;;;;;;;13.69;45.48;95622.19;8300019;28;20201;-71
2021/01/22 14:06:38;;;;;;;3.00;1.43;;;;;;;13.66;45.37;95625.88;8299870;28;20587;-71
2021/01/22 14:10:39;;;;;;;2.00;1.40;;;;;;;13.62;45.38;95627.13;8300029;28;20240;-71
2021/01/22 14:14:41;;;;;;;4.27;1.80;;;;;;;13.69;45.35;95633.41;8300223;28;20209;-71
2021/01/22 14:18:43;;;;;;;3.77;1.40;;;;;;;13.66;45.14;95632.88;8299823;28;20201;-71
2021/01/22 14:22:45;;;;;;;3.53;1.93;;;;;;;13.57;45.16;95642.34;8299192;28;20205;-70
2021/01/22 14:26:47;;;;;;;3.57;1.67;;;;;;;13.60;45.54;95636.88;8296448;28;20243;-71
2021/01/22 14:30:49;;;;;;;3.90;2.00;;;;;;;13.63;46.20;95638.34;8298877;28;20630;-71
2021/01/22 14:34:51;;;;;;;5.23;1.80;;;;;;;13.65;46.46;95639.03;8297105;28;20205;-71
2021/01/22 14:38:53;;;;;;;4.37;2.60;;;;;;;13.59;46.56;95650.81;8297530;28;20240;-71
2021/01/22 14:42:55;;;;;;;8.50;2.57;;;;;;;13.45;48.48;95659.09;8299655;28;20198;-71
2021/01/22 14:46:57;;;;;;;4.43;2.20;;;;;;;12.94;52.34;95670.66;8299396;28;20225;-71
2021/01/22 14:50:59;;;;;;;7.97;1.97;;;;;;;12.59;53.76;95685.84;8299277;28;20205;-71
2021/01/22 14:55:03;;;;;;;3.63;1.63;;;;;;;12.02;54.49;95697.78;8295194;28;20216;-71
2021/01/22 14:59:05;;;;;;;5.73;1.60;;;;;;;11.70;54.82;95706.50;8297157;28;20221;-71
2021/01/22 15:03:07;;;;;;;5.60;1.77;;;;;;;11.53;55.39;95707.91;8295895;28;20197;-71
2021/01/22 15:07:08;;;;;;;3.67;1.40;;;;;;;11.46;55.35;95723.19;8297993;28;20280;-71
2021/01/22 15:11:11;;;;;;;2.47;1.13;;;;;;;11.23;55.59;95721.66;8298284;28;20236;-71
2021/01/22 15:15:14;;;;;;;3.57;1.50;;;;;;;10.98;56.28;95728.03;8296558;28;20233;-71
2021/01/22 15:19:15;;;;;;;2.67;1.30;;;;;;;11.06;55.96;95725.63;8296652;28;20221;-71
2021/01/22 15:23:17;;;;;;;4.73;1.17;;;;;;;10.89;56.19;95729.59;8297027;28;20212;-71
2021/01/22 15:27:20;;;;;;;3.33;1.57;;;;;;;11.03;56.17;95731.91;8296305;28;20197;-71
2021/01/22 15:31:21;;;;;;;2.10;1.40;;;;;;;10.92;55.99;95732.75;8296039;28;20298;-71
2021/01/22 15:35:23;;;;;;;2.60;1.70;;;;;;;10.90;56.62;95723.50;8296803;28;20645;-70
2021/01/22 15:39:25;;;;;;;5.33;1.50;;;;;;;10.86;56.75;95728.09;8293319;28;20225;-71
2021/01/22 15:43:28;;;;;;;4.97;1.60;;;;;;;10.92;56.59;95747.50;8296489;28;20205;-70
2021/01/22 15:47:29;;;;;;;5.37;1.43;;;;;;;10.88;56.53;95754.69;8295994;28;20201;-71
2021/01/22 15:51:31;;;;;;;5.13;1.50;;;;;;;10.76;57.50;95768.63;8295351;28;20390;-70
2021/01/22 15:55:35;;;;;;;3.57;1.27;;;;;;;10.20;58.55;95792.78;8293858;28;20308;-71
2021/01/22 15:59:37;;;;;;;3.77;2.00;;;;;;;10.50;57.35;95792.22;8294071;28;20584;-71
2021/01/22 16:03:39;;;;;;;2.93;2.10;;;;;;;10.42;57.18;95804.94;8300921;28;20220;-71
2021/01/22 16:07:41;;;;;;;3.30;2.87;;;;;;;10.47;57.25;95820.94;8301569;28;20205;-71
2021/01/22 16:11:43;;;;;;;3.10;1.83;;;;;;;10.09;58.29;95819.50;8301900;28;20241;-71
2021/01/22 16:15:46;;;;;;;2.23;1.80;;;;;;;10.06;58.22;95818.91;8300919;28;20201;-71
2021/01/22 16:19:47;;;;;;;2.83;1.77;;;;;;;10.15;57.64;95820.81;8302284;28;20548;-71
2021/01/22 16:23:49;;;;;;;1.20;1.00;;;;;;;10.02;58.26;95825.25;8300977;28;20228;-71
2021/01/22 16:27:51;;;;;;;3.00;1.30;;;;;;;10.13;58.12;95826.09;8301482;28;20272;-73
2021/01/22 16:31:53;;;;;;;4.60;2.20;;;;;;;10.06;58.00;95842.19;8300331;28;20229;-70
2021/01/22 16:35:55;;;;;;;3.00;1.90;;;;;;;9.64;58.97;95837.53;8299208;28;20209;-71
2021/01/22 16:39:59;;;;;;;2.30;2.03;;;;;;;9.90;58.64;95833.00;8300803;28;20265;-71
2021/01/22 16:44:01;;;;;;;3.30;2.50;;;;;;;9.41;60.38;95818.59;8268758;28;20573;-71
2021/01/22 16:48:05;;;;;;;3.80;1.77;;;;;;;9.64;59.33;95829.78;8292110;28;20572;-71
2021/01/22 16:52:07;;;;;;;1.43;1.33;;;;;;;9.29;60.41;95845.28;8301027;28;20585;-71
2021/01/22 16:56:09;;;;;;;5.87;3.73;;;;;;;9.45;59.67;95847.59;8301775;28;20255;-71
2021/01/22 17:00:12;;;;;;;2.20;2.00;;;;;;;9.32;59.53;95843.31;8301318;28;20221;-70
2021/01/22 17:04:17;;;;;;;3.00;2.23;;;;;;;9.47;58.61;95861.22;8300589;28;20201;-71
2021/01/22 17:08:18;;;;;;;1.67;1.40;;;;;;;9.06;59.90;95858.09;8301604;28;20208;-71
2021/01/22 17:12:20;;;;;;;4.10;3.40;;;;;;;9.38;58.78;95855.78;8299131;28;20228;-71
2021/01/22 17:16:22;;;;;;;2.27;1.73;;;;;;;9.43;58.69;95862.41;8297071;28;20208;-72
2021/01/22 17:20:25;;;;;;;4.03;3.10;;;;;;;9.29;58.95;95863.38;8300308;28;20688;-70
2021/01/22 17:24:27;;;;;;;1.63;1.50;;;;;;;9.36;59.08;95855.06;8300444;28;20198;-71
2021/01/22 17:28:29;;;;;;;10.33;7.30;;;;;;;9.10;59.19;95853.56;8299399;28;20213;-72
2021/01/22 17:32:30;;;;;;;8.77;7.07;;;;;;;9.15;59.29;95848.88;8300442;28;20588;-71
2021/01/22 17:36:33;;;;;;;6.67;5.30;;;;;;;8.73;60.03;95841.53;8298854;28;20198;-71
2021/01/22 17:40:35;;;;;;;4.03;3.10;;;;;;;9.02;59.04;95845.53;8299228;28;20220;-71
2021/01/22 17:44:37;;;;;;;1.33;1.23;;;;;;;8.88;59.50;95841.38;8297863;28;20628;-71
2021/01/22 17:48:40;;;;;;;2.80;2.20;;;;;;;8.94;59.10;95839.16;8298278;28;20543;-70
2021/01/22 17:52:42;;;;;;;3.43;3.00;;;;;;;8.84;59.25;95827.03;8299770;28;20212;-70
2021/01/22 17:56:44;;;;;;;2.20;2.00;;;;;;;8.75;59.79;95826.75;8300557;28;20200;-70
2021/01/22 18:00:46;;;;;;;3.20;2.10;;;;;;;8.77;60.06;95801.66;8299446;28;20229;-70
2021/01/22 18:04:48;;;;;;;1.90;1.70;;;;;;;8.69;60.37;95798.00;8300561;28;20224;-70
2021/01/22 18:08:50;;;;;;;2.20;1.10;;;;;;;8.56;60.42;95793.69;8299920;28;20198;-70
2021/01/22 18:12:52;;;;;;;1.43;1.10;;;;;;;8.75;60.25;95789.81;8298751;28;20232;-69
2021/01/22 18:16:54;;;;;;;2.97;1.13;;;;;;;8.71;60.05;95791.78;8297916;28;20220;-69
2021/01/22 18:20:55;;;;;;;6.80;4.47;;;;;;;8.74;60.05;95796.72;8300057;28;20668;-69
2021/01/22 18:24:58;;;;;;;3.10;2.43;;;;;;;8.76;60.25;95788.88;8298454;28;20201;-70
2021/01/22 18:29:01;;;;;;;2.93;2.30;;;;;;;8.66;60.16;95780.94;8299233;28;20259;-69
2021/01/22 18:33:03;;;;;;;9.83;6.33;;;;;;;8.70;60.19;95766.91;8298587;28;20577;-69
2021/01/22 18:37:05;;;;;;;4.33;2.70;;;;;;;8.74;60.14;95772.69;8297997;28;20229;-69
2021/01/22 18:41:08;;;;;;;5.63;5.13;;;;;;;8.67;60.21;95780.03;8297717;28;20228;-69
2021/01/22 18:45:10;;;;;;;5.90;5.17;;;;;;;8.78;59.83;95777.50;8298127;28;20224;-68
2021/01/22 18:49:12;;;;;;;4.37;3.33;;;;;;;9.01;61.65;95782.75;8297448;28;20237;-70
2021/01/22 18:53:14;;;;;;;3.20;2.80;;;;;;;8.69;60.26;95767.03;8298168;28;20240;-70
2021/01/22 18:57:17;;;;;;;2.10;1.87;;;;;;;8.74;60.18;95755.44;8297779;28;20614;-70
2021/01/22 19:01:19;;;;;;;2.33;1.97;;;;;;;8.70;60.50;95753.19;8297005;28;20225;-70
2021/01/22 19:05:21;;;;;;;2.73;2.23;;;;;;;8.86;59.72;95751.16;8297411;28;20197;-70
2021/01/22 19:09:23;;;;;;;3.20;2.90;;;;;;;8.67;60.64;95746.47;8296852;28;20216;-70
2021/01/22 19:13:25;;;;;;;2.70;2.33;;;;;;;8.78;60.21;95736.22;8296645;28;20288;-70